Time;durP1;ratioP1;P1;durP2;ratioP2;P2;SDS_P1;SDS_P2;PMS_P1;PMS_P2;Temp;Humidity;BMP_temperature;BMP_pressure;BME280_temperature;BME280_humidity;BME280_pressure;Samples;Min_cycle;Max_cycle;Signal;HPM_P1;HPM_P2
2021/09/22 00:01:16;;;;;;;;;30.33;23.67;;;;;;;;4941713;28;45632;-77
2021/09/22 00:03:41;;;;;;;;;28.50;27.25;;;;;;;;4938250;28;47621;-78
2021/09/22 00:06:06;;;;;;;;;29.00;26.00;;;;;;;;4935926;28;46097;-78
2021/09/22 00:08:32;;;;;;;;;34.00;25.25;;;;;;;;4952039;28;45567;-78
2021/09/22 00:10:57;;;;;;;;;29.50;25.25;;;;;;;;4964283;28;46190;-77
2021/09/22 00:13:23;;;;;;;;;35.25;27.00;;;;;;;;4942455;28;45584;-77
2021/09/22 00:15:48;;;;;;;;;28.50;21.00;;;;;;;;4937914;28;45629;-78
2021/09/22 00:18:14;;;;;;;;;29.67;24.33;;;;;;;;4950086;28;46802;-77
2021/09/22 00:20:39;;;;;;;;;30.67;24.33;;;;;;;;4936101;28;45650;-77
2021/09/22 00:23:04;;;;;;;;;31.75;26.00;;;;;;;;4940320;28;45657;-78
2021/09/22 00:25:32;;;;;;;;;31.50;26.75;;;;;;;;4939886;28;45453;-76
2021/09/22 00:27:57;;;;;;;;;38.25;29.75;;;;;;;;4934998;28;45622;-77
2021/09/22 00:30:23;;;;;;;;;33.50;27.50;;;;;;;;4945636;28;45532;-78
2021/09/22 00:32:50;;;;;;;;;32.50;27.25;;;;;;;;4944224;28;46538;-77
2021/09/22 00:35:15;;;;;;;;;35.50;26.50;;;;;;;;4943481;28;45570;-78
2021/09/22 00:37:40;;;;;;;;;33.33;26.67;;;;;;;;4938717;28;45527;-77
2021/09/22 00:40:07;;;;;;;;;29.75;26.75;;;;;;;;5074856;22;45563;-96
2021/09/22 00:42:35;;;;;;;;;29.75;23.50;;;;;;;;5036971;28;45611;-96
2021/09/22 00:45:07;;;;;;;;;24.00;21.00;;;;;;;;5036274;28;44945;-96
2021/09/22 00:47:33;;;;;;;;;32.75;26.75;;;;;;;;5034970;28;45576;-96
2021/09/22 00:50:00;;;;;;;;;32.75;28.75;;;;;;;;5034589;28;44857;-96
2021/09/22 00:52:27;;;;;;;;;35.50;29.50;;;;;;;;5033108;28;45658;-96
2021/09/22 00:54:53;;;;;;;;;33.00;26.00;;;;;;;;5040105;28;45576;-96
2021/09/22 00:57:27;;;;;;;;;30.25;28.00;;;;;;;;5037607;28;45438;-96
2021/09/22 01:02:30;;;;;;;;;35.00;28.75;;;;;;;;5024354;22;45539;-78
2021/09/22 01:04:55;;;;;;;;;33.75;23.50;;;;;;;;5013294;28;49557;-77
2021/09/22 01:07:20;;;;;;;;;34.67;26.67;;;;;;;;5003874;28;45516;-77
2021/09/22 01:09:45;;;;;;;;;32.00;28.67;;;;;;;;5025780;28;45489;-76
2021/09/22 01:12:11;;;;;;;;;27.50;23.25;;;;;;;;5009956;28;46119;-77
2021/09/22 01:14:36;;;;;;;;;32.50;26.50;;;;;;;;5020104;28;45787;-76
2021/09/22 01:17:01;;;;;;;;;35.00;31.00;;;;;;;;5029711;28;45462;-77
2021/09/22 01:19:27;;;;;;;;;34.75;27.50;;;;;;;;5018692;28;45442;-78
2021/09/22 01:21:53;;;;;;;;;30.75;26.75;;;;;;;;5020334;28;45981;-77
2021/09/22 01:24:19;;;;;;;;;33.25;29.25;;;;;;;;5024016;28;45501;-77
2021/09/22 01:26:45;;;;;;;;;28.25;26.25;;;;;;;;5013831;28;45745;-78
2021/09/22 01:29:10;;;;;;;;;41.75;24.75;;;;;;;;5026915;28;45621;-77
2021/09/22 01:31:36;;;;;;;;;34.25;24.75;;;;;;;;5023201;28;45573;-78
2021/09/22 01:34:03;;;;;;;;;40.00;29.00;;;;;;;;5024329;28;45911;-78
2021/09/22 01:36:28;;;;;;;;;29.00;24.00;;;;;;;;5019058;28;45576;-78
2021/09/22 01:38:53;;;;;;;;;33.00;25.75;;;;;;;;5018910;28;45571;-76
2021/09/22 01:41:18;;;;;;;;;27.33;23.67;;;;;;;;5020120;28;46082;-77
2021/09/22 01:43:44;;;;;;;;;30.25;24.50;;;;;;;;5025024;28;45541;-78
2021/09/22 01:46:11;;;;;;;;;30.50;25.50;;;;;;;;5009668;28;45567;-78
2021/09/22 01:48:37;;;;;;;;;37.75;25.50;;;;;;;;5027352;28;45723;-78
2021/09/22 01:51:03;;;;;;;;;31.50;26.50;;;;;;;;5027607;28;46153;-77
2021/09/22 01:53:28;;;;;;;;;33.75;27.25;;;;;;;;5008712;28;45782;-78
2021/09/22 01:55:55;;;;;;;;;33.00;25.50;;;;;;;;5023133;28;45713;-77
2021/09/22 01:58:21;;;;;;;;;29.25;24.75;;;;;;;;5019657;28;46642;-77
2021/09/22 02:00:46;;;;;;;;;35.25;26.50;;;;;;;;5030640;28;45756;-78
2021/09/22 02:03:14;;;;;;;;;32.25;25.50;;;;;;;;5015291;28;46915;-78
2021/09/22 02:05:39;;;;;;;;;27.75;26.50;;;;;;;;5003747;28;46040;-77
2021/09/22 02:08:04;;;;;;;;;36.50;30.75;;;;;;;;5026470;28;45537;-78
2021/09/22 02:10:30;;;;;;;;;35.67;25.67;;;;;;;;5022653;28;46076;-78
2021/09/22 02:12:55;;;;;;;;;29.00;24.50;;;;;;;;5020917;28;45887;-78
2021/09/22 02:15:20;;;;;;;;;33.25;25.25;;;;;;;;5016754;28;45563;-78
2021/09/22 02:17:46;;;;;;;;;29.25;23.50;;;;;;;;5022181;28;45552;-77
2021/09/22 02:20:11;;;;;;;;;32.67;28.33;;;;;;;;5019076;28;45754;-78
2021/09/22 02:22:36;;;;;;;;;31.25;26.50;;;;;;;;5021674;28;47251;-75
2021/09/22 02:25:02;;;;;;;;;31.25;29.50;;;;;;;;4988979;28;45602;-75
2021/09/22 02:27:28;;;;;;;;;35.75;31.25;;;;;;;;5018839;28;45609;-75
2021/09/22 02:29:53;;;;;;;;;38.00;29.75;;;;;;;;5010611;28;47494;-75
2021/09/22 02:32:19;;;;;;;;;34.50;30.25;;;;;;;;5114019;22;45501;-96
2021/09/22 02:34:50;;;;;;;;;38.00;28.00;;;;;;;;5062381;28;45041;-96
2021/09/22 02:37:16;;;;;;;;;34.25;29.75;;;;;;;;5071963;28;44900;-96
2021/09/22 02:39:41;;;;;;;;;36.25;22.50;;;;;;;;5073005;28;45521;-96
2021/09/22 02:42:11;;;;;;;;;30.50;27.25;;;;;;;;5089386;28;45387;-96
2021/09/22 02:47:39;;;;;;;;;30.50;26.00;;;;;;;;5175783;22;45465;-76
2021/09/22 02:50:05;;;;;;;;;42.00;27.00;;;;;;;;5060586;27;45386;-77
2021/09/22 02:52:30;;;;;;;;;34.75;31.50;;;;;;;;5054681;27;51759;-76
2021/09/22 02:54:55;;;;;;;;;36.50;28.75;;;;;;;;5054474;28;46076;-76
2021/09/22 02:57:20;;;;;;;;;34.67;29.00;;;;;;;;5051646;27;45537;-76
2021/09/22 02:59:46;;;;;;;;;37.67;29.67;;;;;;;;5051767;28;46499;-76
2021/09/22 03:02:11;;;;;;;;;37.75;27.75;;;;;;;;5062519;27;45587;-76
2021/09/22 03:04:36;;;;;;;;;39.25;32.25;;;;;;;;5060063;28;45744;-76
2021/09/22 03:07:02;;;;;;;;;38.00;27.33;;;;;;;;5058441;28;45413;-76
2021/09/22 03:09:27;;;;;;;;;33.75;30.75;;;;;;;;5067380;28;45663;-76
2021/09/22 03:11:52;;;;;;;;;36.50;31.00;;;;;;;;5053856;27;45516;-76
2021/09/22 03:14:18;;;;;;;;;35.25;29.00;;;;;;;;5070703;27;45495;-75
2021/09/22 03:16:43;;;;;;;;;30.50;25.00;;;;;;;;5062736;28;45489;-75
2021/09/22 03:19:08;;;;;;;;;37.67;33.00;;;;;;;;5064603;28;46717;-76
2021/09/22 03:21:34;;;;;;;;;39.00;28.00;;;;;;;;5057434;27;45559;-79
2021/09/22 03:23:59;;;;;;;;;39.00;28.00;;;;;;;;5054684;27;45830;-78
2021/09/22 03:26:25;;;;;;;;;40.25;31.25;;;;;;;;5058188;28;45476;-79
2021/09/22 03:28:50;;;;;;;;;41.00;30.50;;;;;;;;5057876;28;45559;-78
2021/09/22 03:31:15;;;;;;;;;42.00;28.25;;;;;;;;5064348;28;45417;-77
2021/09/22 03:33:40;;;;;;;;;41.00;34.67;;;;;;;;5064158;27;45417;-78
2021/09/22 03:36:06;;;;;;;;;36.50;26.75;;;;;;;;5058521;28;45403;-78
2021/09/22 03:38:32;;;;;;;;;39.00;32.00;;;;;;;;5055504;28;46147;-77
2021/09/22 03:40:57;;;;;;;;;33.75;30.50;;;;;;;;5055068;28;45601;-79
2021/09/22 03:43:23;;;;;;;;;33.00;27.00;;;;;;;;5058827;28;47301;-78
2021/09/22 03:45:48;;;;;;;;;40.00;30.25;;;;;;;;5055113;28;45687;-78
2021/09/22 03:48:13;;;;;;;;;37.00;29.25;;;;;;;;5052493;27;46594;-78
2021/09/22 03:50:38;;;;;;;;;34.67;25.67;;;;;;;;5058856;28;45578;-77
2021/09/22 03:53:04;;;;;;;;;37.25;30.50;;;;;;;;5056453;27;45651;-77
2021/09/22 03:55:29;;;;;;;;;36.67;31.00;;;;;;;;5057803;28;45733;-80
2021/09/22 03:57:54;;;;;;;;;43.00;34.00;;;;;;;;5065360;28;46054;-79
2021/09/22 04:00:19;;;;;;;;;40.33;27.00;;;;;;;;5055835;28;45465;-78
2021/09/22 04:02:45;;;;;;;;;40.75;32.00;;;;;;;;5059232;28;45583;-79
2021/09/22 04:05:10;;;;;;;;;36.67;30.67;;;;;;;;5053032;28;45668;-81
2021/09/22 04:07:35;;;;;;;;;39.50;28.75;;;;;;;;5055892;28;45942;-78
2021/09/22 04:10:00;;;;;;;;;36.50;30.75;;;;;;;;5063060;28;45541;-79
2021/09/22 04:12:27;;;;;;;;;29.67;25.67;;;;;;;;5062786;28;45564;-79
2021/09/22 04:14:53;;;;;;;;;35.25;29.25;;;;;;;;5059824;28;45859;-77
2021/09/22 04:17:18;;;;;;;;;36.50;31.00;;;;;;;;5061225;28;46193;-78
2021/09/22 04:19:44;;;;;;;;;33.50;28.50;;;;;;;;5056266;27;45619;-80
2021/09/22 04:22:09;;;;;;;;;40.67;32.33;;;;;;;;5059068;27;45550;-76
2021/09/22 04:24:34;;;;;;;;;37.00;29.00;;;;;;;;5064239;28;45538;-76
2021/09/22 04:26:59;;;;;;;;;30.25;25.00;;;;;;;;5052892;27;45607;-76
2021/09/22 04:29:25;;;;;;;;;38.00;31.33;;;;;;;;5057629;28;45561;-76
2021/09/22 04:31:50;;;;;;;;;36.00;27.67;;;;;;;;5069309;27;45820;-76
2021/09/22 04:34:15;;;;;;;;;32.75;31.75;;;;;;;;5084289;27;45534;-76
2021/09/22 04:36:42;;;;;;;;;36.25;32.00;;;;;;;;5068844;27;47240;-75
2021/09/22 04:39:08;;;;;;;;;36.50;31.75;;;;;;;;5079828;27;45825;-75
2021/09/22 04:41:33;;;;;;;;;42.25;33.50;;;;;;;;5074682;27;45533;-76
2021/09/22 04:43:59;;;;;;;;;34.25;31.00;;;;;;;;5073187;27;45948;-74
2021/09/22 04:46:24;;;;;;;;;32.00;28.25;;;;;;;;5079870;27;45573;-76
2021/09/22 04:48:49;;;;;;;;;31.33;26.33;;;;;;;;5079659;27;45576;-74
2021/09/22 04:51:14;;;;;;;;;32.33;25.67;;;;;;;;5086468;27;45657;-75
2021/09/22 04:53:40;;;;;;;;;37.75;31.50;;;;;;;;5089238;27;45822;-76
2021/09/22 04:56:05;;;;;;;;;35.25;26.50;;;;;;;;5090406;27;46006;-76
2021/09/22 04:58:30;;;;;;;;;46.00;35.00;;;;;;;;5078984;27;45583;-76
2021/09/22 05:01:01;;;;;;;;;37.00;28.00;;;;;;;;5079761;27;45501;-76
2021/09/22 05:03:26;;;;;;;;;37.00;30.75;;;;;;;;5059105;27;45432;-75
2021/09/22 05:05:51;;;;;;;;;38.50;30.75;;;;;;;;5069856;27;47855;-76
2021/09/22 05:08:16;;;;;;;;;40.00;33.33;;;;;;;;5073965;28;45547;-76
2021/09/22 05:10:42;;;;;;;;;37.33;30.67;;;;;;;;5081802;27;45611;-75
2021/09/22 05:13:07;;;;;;;;;42.33;34.00;;;;;;;;5080809;27;45557;-77
2021/09/22 05:15:32;;;;;;;;;38.25;31.75;;;;;;;;5080011;27;45510;-77
2021/09/22 05:17:58;;;;;;;;;35.50;30.00;;;;;;;;5069121;27;45896;-75
2021/09/22 05:20:23;;;;;;;;;38.67;31.67;;;;;;;;5080087;27;45723;-77
2021/09/22 05:22:51;;;;;;;;;38.67;33.67;;;;;;;;5306829;22;45481;-96
2021/09/22 05:25:16;;;;;;;;;38.75;32.25;;;;;;;;5111133;22;47101;-81
2021/09/22 05:27:43;;;;;;;;;34.00;28.00;;;;;;;;5042761;28;45821;-80
2021/09/22 05:30:09;;;;;;;;;37.00;29.75;;;;;;;;5044631;28;49665;-82
2021/09/22 05:32:34;;;;;;;;;41.50;33.50;;;;;;;;5044551;28;45674;-82
2021/09/22 05:34:59;;;;;;;;;36.00;31.00;;;;;;;;5027485;28;47164;-81
2021/09/22 05:37:27;;;;;;;;;36.25;32.00;;;;;;;;5048387;28;45627;-81
2021/09/22 05:39:52;;;;;;;;;38.75;30.50;;;;;;;;5040376;28;45498;-81
2021/09/22 05:42:17;;;;;;;;;39.00;32.75;;;;;;;;5032380;28;47782;-81
2021/09/22 05:44:42;;;;;;;;;40.67;32.33;;;;;;;;5044723;28;46857;-82
2021/09/22 05:47:07;;;;;;;;;44.00;35.00;;;;;;;;5024945;28;45650;-80
2021/09/22 05:49:33;;;;;;;;;38.00;29.67;;;;;;;;5038387;28;45499;-81
2021/09/22 05:51:58;;;;;;;;;41.67;29.67;;;;;;;;5027119;28;45421;-80
2021/09/22 05:54:23;;;;;;;;;40.25;34.25;;;;;;;;5046933;28;46279;-79
2021/09/22 05:56:49;;;;;;;;;42.00;32.00;;;;;;;;5029110;28;47177;-80
2021/09/22 05:59:14;;;;;;;;;40.00;32.00;;;;;;;;5037335;28;45909;-79
2021/09/22 06:01:39;;;;;;;;;44.50;31.00;;;;;;;;5041355;28;45722;-78
2021/09/22 06:04:05;;;;;;;;;42.25;34.00;;;;;;;;5038409;28;45736;-80
2021/09/22 06:06:30;;;;;;;;;42.25;32.50;;;;;;;;5037256;28;55052;-82
2021/09/22 06:08:55;;;;;;;;;43.00;29.00;;;;;;;;5035766;28;53253;-81
2021/09/22 06:11:21;;;;;;;;;40.67;34.67;;;;;;;;5048414;28;45558;-83
2021/09/22 06:13:49;;;;;;;;;40.75;32.75;;;;;;;;5035465;28;46142;-81
2021/09/22 06:16:14;;;;;;;;;39.67;31.33;;;;;;;;5040324;28;45387;-81
2021/09/22 06:18:39;;;;;;;;;35.00;29.00;;;;;;;;5032939;28;45533;-80
2021/09/22 06:21:05;;;;;;;;;42.33;30.33;;;;;;;;5029864;28;45473;-81
2021/09/22 06:23:30;;;;;;;;;38.75;30.75;;;;;;;;5033969;28;45838;-79
2021/09/22 06:28:30;;;;;;;;;41.50;32.00;;;;;;;;5254694;22;46883;-79
2021/09/22 06:30:56;;;;;;;;;47.25;31.50;;;;;;;;5064350;27;47869;-79
2021/09/22 06:33:21;;;;;;;;;37.33;31.33;;;;;;;;5083827;27;47465;-80
2021/09/22 06:35:46;;;;;;;;;43.75;32.00;;;;;;;;5079568;27;45961;-78
2021/09/22 06:38:11;;;;;;;;;36.25;30.25;;;;;;;;5079802;27;45456;-79
2021/09/22 06:40:37;;;;;;;;;39.00;26.67;;;;;;;;5072975;27;45669;-80
2021/09/22 06:43:03;;;;;;;;;37.75;32.00;;;;;;;;5073540;27;45564;-79
2021/09/22 06:45:29;;;;;;;;;38.00;27.25;;;;;;;;5059401;27;45844;-79
2021/09/22 06:47:54;;;;;;;;;40.00;34.00;;;;;;;;5063868;27;45761;-79
2021/09/22 06:50:20;;;;;;;;;33.50;30.50;;;;;;;;5087093;27;45506;-79
2021/09/22 06:52:45;;;;;;;;;33.50;26.00;;;;;;;;5081617;27;45685;-79
2021/09/22 06:55:11;;;;;;;;;36.50;27.00;;;;;;;;5075405;27;46638;-80
2021/09/22 06:57:36;;;;;;;;;41.25;30.00;;;;;;;;5071682;27;46289;-78
2021/09/22 07:00:01;;;;;;;;;39.25;32.50;;;;;;;;5075462;27;45417;-79
2021/09/22 07:02:27;;;;;;;;;36.25;31.50;;;;;;;;5073546;27;47196;-79
2021/09/22 07:04:52;;;;;;;;;37.67;31.00;;;;;;;;5071581;27;45632;-79
2021/09/22 07:07:17;;;;;;;;;36.75;28.75;;;;;;;;5080296;27;45527;-79
2021/09/22 07:09:42;;;;;;;;;45.75;28.75;;;;;;;;5075784;27;45635;-79
2021/09/22 07:12:08;;;;;;;;;38.33;30.67;;;;;;;;5066347;27;46496;-78
2021/09/22 07:14:33;;;;;;;;;33.75;31.50;;;;;;;;5074455;27;45869;-80
2021/09/22 07:16:58;;;;;;;;;32.50;29.75;;;;;;;;5080373;27;45815;-78
2021/09/22 07:19:23;;;;;;;;;37.00;30.33;;;;;;;;5075856;27;45599;-78
2021/09/22 07:21:49;;;;;;;;;39.33;31.00;;;;;;;;5072003;27;45599;-78
2021/09/22 07:24:14;;;;;;;;;36.00;28.33;;;;;;;;5078828;27;46908;-79
2021/09/22 07:26:39;;;;;;;;;48.25;36.00;;;;;;;;5073603;27;45496;-79
2021/09/22 07:29:07;;;;;;;;;42.00;28.00;;;;;;;;5081358;27;45715;-79
2021/09/22 07:31:33;;;;;;;;;39.50;28.00;;;;;;;;5068107;27;46011;-79
2021/09/22 07:33:58;;;;;;;;;30.75;28.50;;;;;;;;5071365;27;45599;-79
2021/09/22 07:36:23;;;;;;;;;37.67;28.33;;;;;;;;5069839;27;45695;-79
2021/09/22 07:38:48;;;;;;;;;34.67;28.67;;;;;;;;5065489;27;45667;-79
2021/09/22 07:41:14;;;;;;;;;35.33;32.67;;;;;;;;5076303;27;45436;-78
2021/09/22 07:43:39;;;;;;;;;40.00;29.67;;;;;;;;5077639;27;45630;-79
2021/09/22 07:46:04;;;;;;;;;30.67;27.33;;;;;;;;5077199;27;46768;-78
2021/09/22 07:48:30;;;;;;;;;31.25;26.25;;;;;;;;5063281;27;45647;-79
2021/09/22 07:50:55;;;;;;;;;29.75;27.00;;;;;;;;5056273;27;48249;-80
2021/09/22 07:53:20;;;;;;;;;35.25;27.75;;;;;;;;5085234;27;45531;-78
2021/09/22 07:55:46;;;;;;;;;35.25;25.25;;;;;;;;5074785;27;45527;-78
2021/09/22 07:58:11;;;;;;;;;32.75;24.00;;;;;;;;5076516;27;45550;-80
2021/09/22 08:00:36;;;;;;;;;34.00;25.75;;;;;;;;5069252;27;45485;-79
2021/09/22 08:03:02;;;;;;;;;41.50;31.00;;;;;;;;5055805;27;45967;-79
2021/09/22 08:05:27;;;;;;;;;29.00;24.50;;;;;;;;5084334;27;45556;-77
2021/09/22 08:07:53;;;;;;;;;32.75;28.00;;;;;;;;5056980;27;45606;-78
2021/09/22 08:10:31;;;;;;;;;;;;;;;;;;;;;
2021/09/22 08:12:58;;;;;;;;;33.50;28.75;;;;;;;;5063413;22;72378;-78
2021/09/22 08:15:23;;;;;;;;;34.67;27.67;;;;;;;;5075286;27;45529;-79
2021/09/22 08:17:49;;;;;;;;;32.33;24.00;;;;;;;;5074342;27;47371;-79
2021/09/22 08:20:15;;;;;;;;;29.50;23.25;;;;;;;;5082166;27;46826;-78
2021/09/22 08:22:41;;;;;;;;;35.50;27.75;;;;;;;;5078810;27;48853;-80
2021/09/22 08:25:06;;;;;;;;;34.00;27.50;;;;;;;;5079320;27;45546;-81
2021/09/22 08:27:31;;;;;;;;;28.50;19.75;;;;;;;;5078900;27;45875;-77
2021/09/22 08:29:57;;;;;;;;;29.00;25.75;;;;;;;;5075041;27;47375;-77
2021/09/22 08:32:22;;;;;;;;;36.00;26.67;;;;;;;;5082449;27;45780;-79
2021/09/22 08:34:47;;;;;;;;;32.33;25.67;;;;;;;;5074808;27;45602;-79
2021/09/22 08:37:12;;;;;;;;;34.67;25.67;;;;;;;;5077077;27;45552;-80
2021/09/22 08:39:38;;;;;;;;;27.00;24.25;;;;;;;;5073931;27;45415;-80
2021/09/22 08:42:03;;;;;;;;;33.50;27.00;;;;;;;;5078496;27;46331;-82
2021/09/22 08:44:29;;;;;;;;;33.25;26.25;;;;;;;;5086158;27;45638;-80
2021/09/22 08:46:55;;;;;;;;;38.75;27.00;;;;;;;;5075314;27;45776;-79
2021/09/22 08:49:20;;;;;;;;;31.75;25.75;;;;;;;;5057377;27;47386;-80
2021/09/22 08:51:46;;;;;;;;;31.75;29.00;;;;;;;;5074592;27;45594;-80
2021/09/22 08:54:11;;;;;;;;;38.75;27.00;;;;;;;;5084878;27;45851;-80
2021/09/22 08:56:38;;;;;;;;;32.00;21.50;;;;;;;;5059183;27;45860;-79
2021/09/22 08:59:04;;;;;;;;;36.75;29.75;;;;;;;;5075710;27;46112;-80
2021/09/22 09:01:29;;;;;;;;;36.50;26.25;;;;;;;;5074883;27;45752;-78
2021/09/22 09:03:55;;;;;;;;;24.67;20.67;;;;;;;;5079770;27;45973;-80
2021/09/22 09:06:22;;;;;;;;;33.33;23.00;;;;;;;;5084425;27;46162;-81
2021/09/22 09:08:57;;;;;;;;;32.25;25.00;;;;;;;;5075692;27;45839;-82
2021/09/22 09:11:24;;;;;;;;;29.25;23.25;;;;;;;;5078349;27;45799;-80
2021/09/22 09:13:50;;;;;;;;;27.50;24.50;;;;;;;;5081733;27;46269;-80
2021/09/22 09:16:18;;;;;;;;;24.25;22.25;;;;;;;;5068515;27;45534;-79
2021/09/22 09:21:12;;;;;;;;;32.50;25.50;;;;;;;;5071070;22;45808;-80
2021/09/22 09:23:46;;;;;;;;;28.00;22.75;;;;;;;;5051790;27;47824;-78
2021/09/22 09:26:15;;;;;;;;;24.00;22.75;;;;;;;;5056153;27;48802;-78
2021/09/22 09:28:40;;;;;;;;;24.75;22.00;;;;;;;;5057394;28;45658;-78
2021/09/22 09:31:07;;;;;;;;;31.33;22.33;;;;;;;;5055334;28;46419;-78
2021/09/22 09:33:32;;;;;;;;;26.50;23.75;;;;;;;;5060449;27;45693;-78
2021/09/22 09:36:00;;;;;;;;;27.00;23.33;;;;;;;;5052305;27;52466;-78
2021/09/22 09:38:30;;;;;;;;;30.50;22.50;;;;;;;;5062107;28;46134;-78
2021/09/22 09:40:55;;;;;;;;;26.00;20.75;;;;;;;;5051793;28;45872;-77
2021/09/22 09:43:20;;;;;;;;;24.25;20.00;;;;;;;;5052848;28;45699;-78
2021/09/22 09:45:46;;;;;;;;;31.33;23.67;;;;;;;;5060258;27;45482;-78
2021/09/22 09:48:13;;;;;;;;;30.00;21.75;;;;;;;;5046025;27;45958;-78
2021/09/22 09:50:40;;;;;;;;;19.50;17.75;;;;;;;;5070534;28;45627;-78
2021/09/22 09:53:05;;;;;;;;;28.00;21.25;;;;;;;;5049869;27;46984;-78
2021/09/22 09:55:33;;;;;;;;;24.25;20.50;;;;;;;;5056313;27;45831;-78
2021/09/22 09:57:58;;;;;;;;;22.00;18.25;;;;;;;;5060944;27;46005;-78
2021/09/22 10:00:42;;;;;;;;;23.00;20.50;;;;;;;;5064090;27;45460;-78
2021/09/22 10:03:08;;;;;;;;;27.50;19.00;;;;;;;;5056153;27;46649;-77
2021/09/22 10:05:33;;;;;;;;;20.50;18.50;;;;;;;;5061384;28;45968;-78
2021/09/22 10:07:59;;;;;;;;;24.33;18.33;;;;;;;;5046934;27;46484;-78
2021/09/22 10:10:24;;;;;;;;;17.67;16.33;;;;;;;;5049376;27;45469;-77
2021/09/22 10:12:49;;;;;;;;;26.00;19.75;;;;;;;;5049121;27;45788;-80
2021/09/22 10:15:15;;;;;;;;;25.50;20.00;;;;;;;;5046247;27;45679;-79
2021/09/22 10:17:43;;;;;;;;;25.25;18.00;;;;;;;;5062030;27;45995;-79
2021/09/22 10:20:09;;;;;;;;;21.75;17.25;;;;;;;;5062092;28;45759;-80
2021/09/22 10:22:34;;;;;;;;;15.50;14.25;;;;;;;;5051741;27;45733;-78
2021/09/22 10:25:00;;;;;;;;;20.33;16.67;;;;;;;;5057143;27;45574;-78
2021/09/22 10:27:25;;;;;;;;;18.50;15.50;;;;;;;;5059829;27;51114;-78
2021/09/22 10:29:57;;;;;;;;;18.50;15.00;;;;;;;;5048796;27;45614;-77
2021/09/22 10:32:52;;;;;;;;;16.00;14.00;;;;;;;;5056455;27;45570;-78
2021/09/22 10:35:26;;;;;;;;;13.25;11.25;;;;;;;;4976977;28;46148;-79
2021/09/22 10:37:52;;;;;;;;;12.00;9.75;;;;;;;;4976081;28;47435;-78
2021/09/22 10:40:18;;;;;;;;;11.75;11.75;;;;;;;;4959268;28;48306;-77
2021/09/22 10:42:44;;;;;;;;;11.00;8.75;;;;;;;;4977051;28;45443;-78
2021/09/22 10:45:14;;;;;;;;;9.25;8.25;;;;;;;;4979598;28;45720;-78
2021/09/22 10:47:40;;;;;;;;;9.50;7.75;;;;;;;;4964802;28;47709;-78
2021/09/22 10:50:06;;;;;;;;;8.50;7.00;;;;;;;;4980794;28;46950;-78
2021/09/22 10:52:34;;;;;;;;;5.50;5.50;;;;;;;;4976856;28;47568;-78
2021/09/22 10:57:35;;;;;;;;;10.00;7.75;;;;;;;;5237584;22;45734;-77
2021/09/22 11:00:09;;;;;;;;;8.25;8.25;;;;;;;;5047870;27;45424;-77
2021/09/22 11:02:48;;;;;;;;;8.00;7.00;;;;;;;;5056868;28;45493;-78
2021/09/22 11:05:14;;;;;;;;;9.00;7.50;;;;;;;;5052023;28;45789;-77
2021/09/22 11:08:00;;;;;;;;;7.00;5.50;;;;;;;;5043579;27;45592;-79
2021/09/22 11:10:42;;;;;;;;;9.50;6.25;;;;;;;;5049805;27;45481;-78
2021/09/22 11:13:23;;;;;;;;;8.25;5.25;;;;;;;;5047240;28;45699;-79
2021/09/22 11:15:49;;;;;;;;;8.50;7.00;;;;;;;;5050709;27;45558;-77
2021/09/22 11:18:15;;;;;;;;;3.00;1.50;;;;;;;;5048495;27;45809;-77
2021/09/22 11:20:40;;;;;;;;;9.75;7.00;;;;;;;;5052400;28;45853;-78
2021/09/22 11:23:10;;;;;;;;;8.25;6.00;;;;;;;;5049835;28;49525;-80
2021/09/22 11:25:35;;;;;;;;;7.75;7.00;;;;;;;;5045184;28;45654;-80
2021/09/22 11:28:04;;;;;;;;;11.00;8.00;;;;;;;;5049879;28;46134;-80
2021/09/22 11:30:30;;;;;;;;;13.75;9.00;;;;;;;;5056102;27;45706;-80
2021/09/22 11:32:55;;;;;;;;;8.50;6.25;;;;;;;;5047464;27;45524;-78
2021/09/22 11:35:22;;;;;;;;;12.33;9.00;;;;;;;;5053791;27;45468;-80
2021/09/22 11:37:52;;;;;;;;;9.00;8.50;;;;;;;;5048957;28;45563;-79
2021/09/22 11:40:19;;;;;;;;;9.00;7.00;;;;;;;;5055896;27;45643;-81
2021/09/22 11:42:52;;;;;;;;;9.50;7.75;;;;;;;;5054950;27;45719;-78
2021/09/22 11:45:19;;;;;;;;;8.00;7.00;;;;;;;;5061025;28;45456;-79
2021/09/22 11:47:45;;;;;;;;;10.00;9.75;;;;;;;;5052508;27;45470;-79
2021/09/22 11:50:10;;;;;;;;;9.00;9.00;;;;;;;;5053097;28;45490;-80
2021/09/22 11:52:35;;;;;;;;;11.67;7.67;;;;;;;;5054043;27;45699;-77
2021/09/22 11:55:02;;;;;;;;;10.00;8.00;;;;;;;;5056988;27;45585;-79
2021/09/22 11:57:28;;;;;;;;;9.00;7.00;;;;;;;;5048968;28;45491;-77
2021/09/22 11:59:54;;;;;;;;;6.75;6.50;;;;;;;;5053201;27;45687;-77
2021/09/22 12:02:20;;;;;;;;;12.00;7.00;;;;;;;;5056916;28;45488;-75
2021/09/22 12:04:46;;;;;;;;;10.50;6.50;;;;;;;;5049961;28;45773;-78
2021/09/22 12:07:13;;;;;;;;;8.75;7.00;;;;;;;;5051131;28;47092;-76
2021/09/22 12:09:41;;;;;;;;;8.00;6.75;;;;;;;;5054679;28;45512;-77
2021/09/22 12:12:10;;;;;;;;;7.25;6.00;;;;;;;;5045840;27;45621;-78
2021/09/22 12:14:35;;;;;;;;;7.00;6.00;;;;;;;;5053691;28;45557;-79
2021/09/22 12:17:08;;;;;;;;;8.75;8.25;;;;;;;;5056025;27;46331;-78
2021/09/22 12:19:33;;;;;;;;;8.50;8.00;;;;;;;;5045022;27;46252;-81
2021/09/22 12:21:58;;;;;;;;;8.00;8.00;;;;;;;;5045267;28;45473;-78
2021/09/22 12:24:24;;;;;;;;;16.75;11.25;;;;;;;;5059788;28;45577;-78
2021/09/22 12:26:52;;;;;;;;;13.00;7.50;;;;;;;;5049683;28;46181;-77
2021/09/22 12:29:18;;;;;;;;;5.00;5.00;;;;;;;;5059734;28;45725;-77
2021/09/22 12:31:44;;;;;;;;;8.25;6.00;;;;;;;;5051104;28;45826;-81
2021/09/22 12:34:13;;;;;;;;;8.00;6.00;;;;;;;;5059397;28;45677;-80
2021/09/22 12:36:42;;;;;;;;;6.00;6.00;;;;;;;;5055572;28;45592;-78
2021/09/22 12:39:12;;;;;;;;;9.75;7.00;;;;;;;;5046828;28;45448;-78
2021/09/22 12:41:38;;;;;;;;;8.75;5.00;;;;;;;;5049333;27;48155;-80
2021/09/22 12:44:03;;;;;;;;;5.00;5.00;;;;;;;;5051294;27;45488;-79
2021/09/22 12:46:37;;;;;;;;;7.50;6.00;;;;;;;;5042552;28;45823;-80
2021/09/22 12:49:22;;;;;;;;;5.75;5.75;;;;;;;;5045337;27;45707;-79
2021/09/22 12:51:52;;;;;;;;;7.75;6.25;;;;;;;;5057310;27;45477;-80
2021/09/22 12:54:17;;;;;;;;;7.00;7.00;;;;;;;;5044558;27;45550;-79
2021/09/22 12:56:43;;;;;;;;;9.50;7.00;;;;;;;;5056698;28;46314;-77
2021/09/22 12:59:15;;;;;;;;;7.25;6.00;;;;;;;;5049416;27;45575;-78
2021/09/22 13:01:40;;;;;;;;;6.25;6.25;;;;;;;;5050396;27;45566;-81
2021/09/22 13:04:06;;;;;;;;;9.00;7.25;;;;;;;;5051258;27;45591;-79
2021/09/22 13:06:31;;;;;;;;;8.33;7.33;;;;;;;;5049267;27;47724;-79
2021/09/22 13:08:58;;;;;;;;;9.75;7.00;;;;;;;;5050927;28;47424;-81
2021/09/22 13:11:24;;;;;;;;;4.50;4.25;;;;;;;;5051712;27;46014;-80
2021/09/22 13:13:52;;;;;;;;;8.00;7.00;;;;;;;;5044689;27;45623;-83
2021/09/22 13:16:27;;;;;;;;;7.00;7.00;;;;;;;;5053753;27;46335;-82
2021/09/22 13:18:53;;;;;;;;;3.00;3.00;;;;;;;;5050792;27;45959;-82
2021/09/22 13:21:18;;;;;;;;;10.50;7.00;;;;;;;;5049479;27;45646;-79
2021/09/22 13:23:48;;;;;;;;;8.50;6.00;;;;;;;;5051580;27;45519;-78
2021/09/22 13:26:14;;;;;;;;;6.00;4.00;;;;;;;;5064178;28;45448;-79
2021/09/22 13:28:40;;;;;;;;;7.00;7.00;;;;;;;;5058111;27;45599;-79
2021/09/22 13:31:05;;;;;;;;;7.50;6.00;;;;;;;;5059387;28;45695;-79
2021/09/22 13:33:30;;;;;;;;;5.00;5.00;;;;;;;;5059497;28;45653;-79
2021/09/22 13:35:56;;;;;;;;;5.50;5.00;;;;;;;;5047920;28;46152;-80
2021/09/22 13:38:21;;;;;;;;;6.50;5.25;;;;;;;;5056871;28;45519;-80
2021/09/22 13:40:47;;;;;;;;;8.50;6.50;;;;;;;;5050435;27;45501;-80
2021/09/22 13:43:15;;;;;;;;;10.00;5.75;;;;;;;;5050688;27;47344;-80
2021/09/22 13:45:40;;;;;;;;;4.50;4.50;;;;;;;;5057091;28;45505;-82
2021/09/22 13:50:40;;;;;;;;;6.75;6.00;;;;;;;;5253547;22;46285;-82
2021/09/22 13:53:06;;;;;;;;;11.75;5.00;;;;;;;;5006574;28;47372;-81
2021/09/22 13:55:31;;;;;;;;;7.75;6.25;;;;;;;;4996522;28;47180;-82
2021/09/22 13:57:56;;;;;;;;;6.00;6.00;;;;;;;;5020514;28;45477;-80
2021/09/22 14:00:21;;;;;;;;;7.00;6.00;;;;;;;;4994943;28;45649;-83
2021/09/22 14:02:46;;;;;;;;;5.00;5.00;;;;;;;;5024165;28;45557;-81
2021/09/22 14:05:12;;;;;;;;;6.00;5.00;;;;;;;;5000120;28;47823;-81
2021/09/22 14:07:37;;;;;;;;;6.00;6.00;;;;;;;;5010795;28;45740;-82
2021/09/22 14:10:03;;;;;;;;;7.00;6.00;;;;;;;;5004564;28;45613;-81
2021/09/22 14:15:03;;;;;;;;;7.00;4.25;;;;;;;;5024330;22;46303;-81
2021/09/22 14:17:29;;;;;;;;;5.50;5.50;;;;;;;;5043565;28;45979;-80
2021/09/22 14:19:54;;;;;;;;;10.00;5.50;;;;;;;;5038214;28;45588;-79
2021/09/22 14:22:19;;;;;;;;;4.00;4.00;;;;;;;;5032304;28;45587;-79
2021/09/22 14:24:45;;;;;;;;;7.00;5.00;;;;;;;;5037035;28;46145;-79
2021/09/22 14:27:10;;;;;;;;;8.25;6.00;;;;;;;;5026733;28;45259;-79
2021/09/22 14:29:35;;;;;;;;;7.75;5.25;;;;;;;;5032558;28;45499;-79
2021/09/22 14:32:00;;;;;;;;;6.25;6.25;;;;;;;;5029801;28;45572;-80
2021/09/22 14:34:27;;;;;;;;;6.67;4.33;;;;;;;;5033294;28;46248;-79
2021/09/22 14:36:52;;;;;;;;;8.75;5.75;;;;;;;;5032110;28;54779;-79